Time,TemperatureF,DewpointF,PressureIn,WindDirection,WindDirectionDegrees,WindSpeedMPH,WindSpeedGustMPH,Humidity,HourlyPrecipIn,Conditions,Clouds,dailyrainin,SoftwareType,DateUTC
2013-03-06 00:00:00,32.8,31.8,29.61,ESE,102,0.0,0.0,96,0.00,-SN,SCT,0.52,WeatherDisplay:10.37,2013-03-06 05:00:00,
2013-03-06 00:05:00,32.8,31.8,29.61,ESE,102,0.0,0.0,96,0.00,RA,SCT,0.00,WeatherDisplay:10.37,2013-03-06 05:05:00,
2013-03-06 00:10:00,32.6,31.6,29.61,ESE,102,0.0,0.0,96,0.00,OVC,SCT,0.00,WeatherDisplay:10.37,2013-03-06 05:10:00,
2013-03-06 00:15:00,32.7,31.7,29.61,ESE,102,0.0,0.0,96,0.00,OVC,SCT,0.00,WeatherDisplay:10.37,2013-03-06 05:15:00,
2013-03-06 00:20:00,32.7,31.7,29.60,ESE,102,0.0,0.0,96,0.00,OVC,SCT,0.00,WeatherDisplay:10.37,2013-03-06 05:20:00,
2013-03-06 00:25:00,32.6,31.6,29.60,ESE,102,0.0,0.0,96,0.00,OVC,SCT,0.00,WeatherDisplay:10.37,2013-03-06 05:25:00,
2013-03-06 00:30:00,32.6,31.6,29.60,ESE,102,0.0,0.0,96,0.00,OVC,SCT,0.00,WeatherDisplay:10.37,2013-03-06 05:30:00,
2013-03-06 00:35:00,32.8,31.8,29.60,ESE,102,0.0,0.0,96,0.00,OVC,SCT,0.00,WeatherDisplay:10.37,2013-03-06 05:35:00,
2013-03-06 00:40:00,32.9,31.9,29.60,ESE,102,0.0,0.0,96,0.00,OVC,SCT,0.00,WeatherDisplay:10.37,2013-03-06 05:40:00,
2013-03-06 00:45:00,33.0,32.0,29.59,ESE,102,0.0,0.0,96,0.00,OVC,SCT,0.00,WeatherDisplay:10.37,2013-03-06 05:45:00,
2013-03-06 00:50:00,32.8,31.8,29.60,ESE,102,0.0,0.0,96,0.01,RA,SCT,0.01,WeatherDisplay:10.37,2013-03-06 05:50:00,
2013-03-06 00:55:00,32.8,31.8,29.60,ESE,102,0.0,0.0,96,0.01,RA,SCT,0.01,WeatherDisplay:10.37,2013-03-06 05:55:00,
2013-03-06 01:00:00,32.8,31.8,29.60,ESE,102,0.0,0.0,96,0.01,OVC,SCT,0.01,WeatherDisplay:10.37,2013-03-06 06:00:00,
2013-03-06 01:05:00,32.8,31.8,29.60,ESE,102,0.0,0.0,96,0.01,-SN,SCT,0.01,WeatherDisplay:10.37,2013-03-06 06:05:00,
2013-03-06 01:10:00,32.9,31.9,29.60,ESE,102,0.0,0.0,96,0.01,-SN,SCT,0.01,WeatherDisplay:10.37,2013-03-06 06:10:00,
2013-03-06 01:15:00,32.8,31.8,29.60,ESE,102,0.0,0.0,96,0.01,-SN,SCT,0.01,WeatherDisplay:10.37,2013-03-06 06:15:00,
2013-03-06 01:20:00,32.8,31.8,29.60,ESE,102,0.0,0.0,96,0.01,-SN,SCT,0.01,WeatherDisplay:10.37,2013-03-06 06:20:00,
2013-03-06 01:25:00,33.0,32.0,29.60,ESE,102,0.0,0.0,96,0.01,-SN,SCT,0.01,WeatherDisplay:10.37,2013-03-06 06:25:00,
2013-03-06 01:30:00,33.0,32.0,29.60,ESE,102,0.0,0.0,96,0.01,-SN,SCT,0.01,WeatherDisplay:10.37,2013-03-06 06:30:00,
2013-03-06 01:35:00,33.1,32.1,29.60,ESE,102,0.0,0.0,96,0.01,-SN,SCT,0.01,WeatherDisplay:10.37,2013-03-06 06:35:00,
2013-03-06 01:40:00,32.9,31.9,29.60,ESE,102,0.0,0.0,96,0.01,-SN,SCT,0.01,WeatherDisplay:10.37,2013-03-06 06:40:00,
2013-03-06 01:45:00,32.8,31.8,29.60,ESE,102,0.0,0.0,96,0.01,-SN,SCT,0.01,WeatherDisplay:10.37,2013-03-06 06:45:00,
2013-03-06 01:50:00,32.8,31.8,29.60,ESE,102,0.0,0.0,96,0.00,-SN,SCT,0.01,WeatherDisplay:10.37,2013-03-06 06:50:00,
2013-03-06 01:55:00,32.8,31.8,29.60,ESE,102,0.0,0.0,96,0.01,-SN,SCT,0.02,WeatherDisplay:10.37,2013-03-06 06:55:00,
2013-03-06 02:00:00,32.8,31.8,29.60,ESE,102,0.0,0.0,96,0.01,-SN,SCT,0.02,WeatherDisplay:10.37,2013-03-06 07:00:00,
2013-03-06 02:05:00,32.6,31.6,29.60,ESE,102,0.0,0.0,96,0.01,-SN,SCT,0.02,WeatherDisplay:10.37,2013-03-06 07:05:00,
2013-03-06 02:10:00,32.5,31.5,29.60,ESE,102,0.0,0.0,96,0.01,-SN,SCT,0.02,WeatherDisplay:10.37,2013-03-06 07:10:00,
2013-03-06 02:15:00,32.3,31.3,29.60,ESE,102,0.0,0.0,96,0.01,-SN,SCT,0.02,WeatherDisplay:10.37,2013-03-06 07:15:00,
2013-03-06 02:20:00,32.3,31.3,29.60,ESE,102,0.0,0.0,96,0.01,-SN,SCT,0.02,WeatherDisplay:10.37,2013-03-06 07:20:00,
2013-03-06 02:25:00,32.3,31.5,29.60,ESE,102,0.0,0.0,97,0.01,-SN,SCT,0.02,WeatherDisplay:10.37,2013-03-06 07:25:00,
2013-03-06 02:30:00,32.3,31.5,29.59,ESE,102,0.0,0.0,97,0.01,-SN,SCT,0.02,WeatherDisplay:10.37,2013-03-06 07:30:00,
2013-03-06 02:35:00,32.3,31.5,29.59,ESE,102,0.0,0.0,97,0.01,-SN,SCT,0.02,WeatherDisplay:10.37,2013-03-06 07:35:00,
2013-03-06 02:40:00,32.5,31.7,29.59,ESE,102,0.0,0.0,97,0.01,-SN,SCT,0.02,WeatherDisplay:10.37,2013-03-06 07:40:00,
2013-03-06 02:45:00,32.6,31.8,29.59,ESE,102,0.0,0.0,97,0.01,-SN,SCT,0.02,WeatherDisplay:10.37,2013-03-06 07:45:00,
2013-03-06 02:50:00,32.6,31.8,29.59,ESE,102,0.0,0.0,97,0.01,-SN,SCT,0.02,WeatherDisplay:10.37,2013-03-06 07:50:00,
2013-03-06 02:55:00,32.6,31.8,29.59,ESE,102,0.0,0.0,97,0.00,-SN,SCT,0.02,WeatherDisplay:10.37,2013-03-06 07:55:00,
2013-03-06 03:00:00,32.6,31.6,29.59,ESE,102,0.0,0.0,96,0.00,-SN,SCT,0.02,WeatherDisplay:10.37,2013-03-06 08:00:00,
2013-03-06 03:05:00,32.5,31.5,29.58,ESE,102,0.0,0.0,96,0.00,-SN,SCT,0.02,WeatherDisplay:10.37,2013-03-06 08:05:00,
2013-03-06 03:10:00,32.4,31.6,29.58,ESE,102,0.0,0.0,97,0.00,-SN,SCT,0.02,WeatherDisplay:10.37,2013-03-06 08:10:00,
2013-03-06 03:15:00,32.4,31.6,29.58,ESE,102,0.0,0.0,97,0.00,-SN,SCT,0.02,WeatherDisplay:10.37,2013-03-06 08:15:00,
2013-03-06 03:20:00,32.3,31.5,29.57,ESE,102,0.0,0.0,97,0.00,-SN,SCT,0.02,WeatherDisplay:10.37,2013-03-06 08:20:00,
2013-03-06 03:25:00,32.3,31.5,29.57,ESE,102,0.0,0.0,97,0.00,-SN,SCT,0.02,WeatherDisplay:10.37,2013-03-06 08:25:00,
2013-03-06 03:30:00,32.4,31.6,29.57,ESE,102,0.0,0.0,97,0.00,-SN,SCT,0.02,WeatherDisplay:10.37,2013-03-06 08:30:00,
2013-03-06 03:35:00,32.5,31.7,29.57,ESE,102,0.0,0.0,97,0.00,-SN,SCT,0.02,WeatherDisplay:10.37,2013-03-06 08:35:00,
2013-03-06 03:40:00,32.4,31.6,29.57,ESE,102,0.0,0.0,97,0.00,-SN,SCT,0.02,WeatherDisplay:10.37,2013-03-06 08:40:00,
2013-03-06 03:45:00,32.4,31.6,29.57,ESE,102,0.0,0.0,97,0.00,-SN,SCT,0.02,WeatherDisplay:10.37,2013-03-06 08:45:00,
2013-03-06 03:50:00,32.4,31.4,29.57,ESE,102,0.0,0.0,96,0.01,-SN,SCT,0.03,WeatherDisplay:10.37,2013-03-06 08:50:00,
2013-03-06 03:55:00,32.5,31.5,29.57,ESE,102,0.0,0.0,96,0.01,-SN,SCT,0.03,WeatherDisplay:10.37,2013-03-06 08:55:00,
2013-03-06 04:00:00,32.5,31.5,29.57,ESE,102,0.0,0.0,96,0.01,-SN,SCT,0.03,WeatherDisplay:10.37,2013-03-06 09:00:00,
2013-03-06 04:05:00,32.4,31.4,29.57,ESE,102,0.0,0.0,96,0.01,-SN,SCT,0.03,WeatherDisplay:10.37,2013-03-06 09:05:00,
2013-03-06 04:10:00,32.4,31.4,29.57,ESE,102,0.0,0.0,96,0.01,-SN,SCT,0.03,WeatherDisplay:10.37,2013-03-06 09:10:00,
2013-03-06 04:15:00,32.3,31.3,29.57,ESE,102,0.0,0.0,96,0.01,-SN,SCT,0.03,WeatherDisplay:10.37,2013-03-06 09:15:00,
2013-03-06 04:20:00,32.2,31.2,29.57,ESE,102,0.0,0.0,96,0.01,-SN,SCT,0.03,WeatherDisplay:10.37,2013-03-06 09:20:00,
2013-03-06 04:25:00,32.1,31.1,29.57,ESE,102,0.0,0.0,96,0.01,-SN,SCT,0.03,WeatherDisplay:10.37,2013-03-06 09:25:00,
2013-03-06 04:30:00,32.0,31.0,29.58,ESE,102,0.0,0.0,96,0.01,-SN,SCT,0.03,WeatherDisplay:10.37,2013-03-06 09:30:00,
2013-03-06 04:35:00,31.9,30.9,29.57,ESE,102,0.0,0.0,96,0.01,-SN,SCT,0.03,WeatherDisplay:10.37,2013-03-06 09:35:00,
2013-03-06 04:40:00,31.9,30.9,29.57,ESE,116,0.0,1.8,96,0.01,-SN,SCT,0.03,WeatherDisplay:10.37,2013-03-06 09:40:00,
2013-03-06 04:45:00,31.8,30.8,29.58,NNW,337,0.0,0.0,96,0.01,-SN,SCT,0.03,WeatherDisplay:10.37,2013-03-06 09:45:00,
2013-03-06 04:50:00,31.7,30.7,29.58,East,99,3.5,0.0,96,0.00,-SN,SCT,0.03,WeatherDisplay:10.37,2013-03-06 09:50:00,
2013-03-06 04:55:00,31.7,30.7,29.57,ENE,75,0.0,0.4,96,0.00,-SN,SCT,0.03,WeatherDisplay:10.37,2013-03-06 09:55:00,
2013-03-06 05:01:00,31.6,30.6,29.57,NE,54,0.0,0.0,96,0.00,-SN,SCT,0.03,WeatherDisplay:10.37,2013-03-06 10:01:00,
2013-03-06 05:06:00,31.5,30.5,29.58,NE,54,0.0,0.0,96,0.00,-SN,SCT,0.03,WeatherDisplay:10.37,2013-03-06 10:06:00,
2013-03-06 05:11:00,31.4,30.1,29.58,NW,306,8.1,8.1,95,0.00,-SN,SCT,0.03,WeatherDisplay:10.37,2013-03-06 10:11:00,
2013-03-06 05:16:00,31.4,30.1,29.58,WSW,258,0.0,0.0,95,0.00,-SN,SCT,0.03,WeatherDisplay:10.37,2013-03-06 10:16:00,
2013-03-06 05:21:00,31.3,30.0,29.58,South,178,0.0,0.0,95,0.00,-SN,SCT,0.03,WeatherDisplay:10.37,2013-03-06 10:21:00,
2013-03-06 05:26:00,31.3,30.0,29.58,South,178,0.0,0.0,95,0.00,-SN,SCT,0.03,WeatherDisplay:10.37,2013-03-06 10:26:00,
2013-03-06 05:31:00,31.3,30.0,29.58,South,178,0.0,0.0,95,0.00,-SN,SCT,0.03,WeatherDisplay:10.37,2013-03-06 10:31:00,
2013-03-06 05:36:00,31.3,30.0,29.58,South,178,0.0,0.0,95,0.00,-SN,SCT,0.03,WeatherDisplay:10.37,2013-03-06 10:36:00,
2013-03-06 05:41:00,31.2,29.9,29.58,South,178,0.0,0.5,95,0.00,-SN,SCT,0.03,WeatherDisplay:10.37,2013-03-06 10:41:00,
2013-03-06 05:46:00,31.2,29.9,29.59,NE,54,3.5,0.0,95,0.00,-SN,SCT,0.03,WeatherDisplay:10.37,2013-03-06 10:46:00,
2013-03-06 05:51:00,31.1,29.8,29.59,NE,55,0.0,0.0,95,0.00,-SN,SCT,0.03,WeatherDisplay:10.37,2013-03-06 10:51:00,
2013-03-06 05:56:00,31.2,29.7,29.59,NNE,24,0.0,0.0,94,0.00,-SN,SCT,0.03,WeatherDisplay:10.37,2013-03-06 10:56:00,
2013-03-06 06:01:00,31.2,29.7,29.59,East,90,0.0,0.0,94,0.00,OVC,SCT,0.03,WeatherDisplay:10.37,2013-03-06 11:01:00,
2013-03-06 06:06:00,31.1,29.6,29.59,East,90,0.0,0.0,94,0.00,OVC,SCT,0.03,WeatherDisplay:10.37,2013-03-06 11:06:00,
2013-03-06 06:11:00,31.0,29.5,29.59,East,90,0.0,0.0,94,0.00,OVC,SCT,0.03,WeatherDisplay:10.37,2013-03-06 11:11:00,
2013-03-06 06:16:00,31.0,29.5,29.59,ESE,114,0.0,0.0,94,0.00,OVC,SCT,0.03,WeatherDisplay:10.37,2013-03-06 11:16:00,
2013-03-06 06:21:00,31.0,29.5,29.60,ESE,114,0.0,0.0,94,0.00,OVC,SCT,0.03,WeatherDisplay:10.37,2013-03-06 11:21:00,
2013-03-06 06:26:00,31.0,29.5,29.60,ESE,114,0.0,0.0,94,0.01,RA,SCT,0.04,WeatherDisplay:10.37,2013-03-06 11:26:00,
2013-03-06 06:31:00,31.0,29.5,29.60,ESE,114,0.0,0.0,94,0.01,RA,SCT,0.04,WeatherDisplay:10.37,2013-03-06 11:31:00,
2013-03-06 06:36:00,30.9,29.4,29.60,ESE,114,0.0,0.0,94,0.01,OVC,SCT,0.04,WeatherDisplay:10.37,2013-03-06 11:36:00,
2013-03-06 06:41:00,30.8,29.3,29.60,ENE,76,0.0,0.0,94,0.01,OVC,SCT,0.04,WeatherDisplay:10.37,2013-03-06 11:41:00,
2013-03-06 06:46:00,30.8,29.3,29.61,ENE,76,0.0,0.0,94,0.01,OVC,SCT,0.04,WeatherDisplay:10.37,2013-03-06 11:46:00,
2013-03-06 06:51:00,30.6,29.1,29.61,ENE,76,0.0,0.0,94,0.01,OVC,SCT,0.04,WeatherDisplay:10.37,2013-03-06 11:51:00,
2013-03-06 06:56:00,30.6,29.1,29.61,ENE,76,0.0,0.0,94,0.01,-SN,SCT,0.04,WeatherDisplay:10.37,2013-03-06 11:56:00,
2013-03-06 07:01:00,30.7,29.2,29.61,NE,54,3.5,3.5,94,0.01,-SN,SCT,0.04,WeatherDisplay:10.37,2013-03-06 12:01:00,
2013-03-06 07:06:00,30.6,29.1,29.61,NE,49,0.0,0.0,94,0.01,-SN,SCT,0.04,WeatherDisplay:10.37,2013-03-06 12:06:00,
2013-03-06 07:11:00,30.7,29.2,29.61,NNE,18,9.2,9.2,94,0.01,-SN,SCT,0.04,WeatherDisplay:10.37,2013-03-06 12:11:00,
2013-03-06 07:16:00,30.6,29.1,29.61,NE,52,4.4,4.4,94,0.01,-SN,SCT,0.04,WeatherDisplay:10.37,2013-03-06 12:16:00,
2013-03-06 07:21:00,30.4,28.6,29.62,North,3,4.6,4.6,93,0.01,-SN,SCT,0.04,WeatherDisplay:10.37,2013-03-06 12:21:00,
2013-03-06 07:26:00,30.3,28.5,29.62,NE,45,6.9,6.9,93,0.00,-SN,SCT,0.04,WeatherDisplay:10.37,2013-03-06 12:26:00,
2013-03-06 07:31:00,30.2,28.4,29.62,East,83,11.5,11.5,93,0.00,-SN,SCT,0.04,WeatherDisplay:10.37,2013-03-06 12:31:00,
2013-03-06 07:36:00,30.2,28.2,29.62,ENE,61,3.5,3.5,92,0.00,-SN,SCT,0.04,WeatherDisplay:10.37,2013-03-06 12:36:00,
2013-03-06 07:41:00,30.1,28.1,29.62,NE,35,5.8,5.8,92,0.00,-SN,SCT,0.04,WeatherDisplay:10.37,2013-03-06 12:41:00,
2013-03-06 07:46:00,30.1,28.1,29.62,NNE,13,4.6,4.6,92,0.00,-SN,SCT,0.04,WeatherDisplay:10.37,2013-03-06 12:46:00,
2013-03-06 07:51:00,30.1,28.1,29.62,North,7,5.8,5.8,92,0.00,-SN,SCT,0.04,WeatherDisplay:10.37,2013-03-06 12:51:00,
2013-03-06 07:56:00,30.1,28.1,29.62,NW,304,11.5,11.5,92,0.00,-SN,SCT,0.04,WeatherDisplay:10.37,2013-03-06 12:56:00,
2013-03-06 08:01:00,30.1,28.1,29.63,NNW,330,0.0,0.0,92,0.00,-SN,SCT,0.04,WeatherDisplay:10.37,2013-03-06 13:01:00,
2013-03-06 08:06:00,30.2,28.2,29.63,NE,38,11.5,11.5,92,0.00,-SN,SCT,0.04,WeatherDisplay:10.37,2013-03-06 13:06:00,
2013-03-06 08:11:00,30.1,28.1,29.64,NNE,28,0.0,0.0,92,0.00,-SN,SCT,0.04,WeatherDisplay:10.37,2013-03-06 13:11:00,
2013-03-06 08:16:00,30.3,28.3,29.64,East,80,0.0,0.0,92,0.00,-SN,SCT,0.04,WeatherDisplay:10.37,2013-03-06 13:16:00,
2013-03-06 08:21:00,30.5,28.2,29.64,North,356,8.1,8.1,91,0.00,-SN,SCT,0.04,WeatherDisplay:10.37,2013-03-06 13:21:00,
2013-03-06 08:26:00,30.4,28.1,29.64,NNE,18,2.3,2.3,91,0.00,-SN,SCT,0.04,WeatherDisplay:10.37,2013-03-06 13:26:00,
2013-03-06 08:31:00,30.4,28.1,29.65,NNE,14,6.9,6.9,91,0.00,-SN,SCT,0.04,WeatherDisplay:10.37,2013-03-06 13:31:00,
2013-03-06 08:36:00,30.3,28.0,29.64,NW,309,2.3,2.3,91,0.00,-SN,SCT,0.04,WeatherDisplay:10.37,2013-03-06 13:36:00,
2013-03-06 08:41:00,30.5,27.9,29.64,NNW,346,11.5,11.5,90,0.00,-SN,SCT,0.04,WeatherDisplay:10.37,2013-03-06 13:41:00,
2013-03-06 08:46:00,30.6,28.0,29.65,NW,306,3.5,3.5,90,0.00,-SN,SCT,0.04,WeatherDisplay:10.37,2013-03-06 13:46:00,
2013-03-06 08:51:00,30.8,28.2,29.65,NE,56,2.3,2.3,90,0.00,-SN,SCT,0.04,WeatherDisplay:10.37,2013-03-06 13:51:00,
2013-03-06 08:56:00,30.9,28.3,29.66,NNW,347,5.8,5.8,90,0.00,-SN,SCT,0.04,WeatherDisplay:10.37,2013-03-06 13:56:00,
2013-03-06 09:01:00,31.0,28.4,29.66,NNE,17,11.5,11.5,90,0.00,OVC,SCT,0.04,WeatherDisplay:10.37,2013-03-06 14:01:00,
2013-03-06 09:06:00,31.0,28.4,29.66,SSE,155,11.5,11.5,90,0.00,OVC,SCT,0.04,WeatherDisplay:10.37,2013-03-06 14:06:00,
2013-03-06 09:11:00,31.1,28.2,29.67,NNW,343,9.2,9.2,89,0.00,OVC,SCT,0.04,WeatherDisplay:10.37,2013-03-06 14:11:00,
2013-03-06 09:16:00,31.4,28.5,29.67,ENE,61,7.2,7.2,89,0.00,OVC,SCT,0.04,WeatherDisplay:10.37,2013-03-06 14:16:00,
2013-03-06 09:21:00,31.4,28.5,29.67,WSW,258,9.2,9.2,89,0.01,RA,SCT,0.05,WeatherDisplay:10.37,2013-03-06 14:21:00,
2013-03-06 09:26:00,31.5,28.6,29.67,NNW,343,6.9,6.9,89,0.01,RA,SCT,0.05,WeatherDisplay:10.37,2013-03-06 14:26:00,
2013-03-06 09:31:00,31.7,28.6,29.67,NNE,13,9.5,9.5,88,0.01,OVC,SCT,0.05,WeatherDisplay:10.37,2013-03-06 14:31:00,
2013-03-06 09:36:00,31.7,28.6,29.67,NE,56,14.0,14.0,88,0.01,OVC,SCT,0.05,WeatherDisplay:10.37,2013-03-06 14:36:00,
2013-03-06 09:41:00,31.9,28.8,29.67,ENE,78,6.0,6.0,88,0.01,OVC,SCT,0.05,WeatherDisplay:10.37,2013-03-06 14:41:00,
2013-03-06 09:46:00,32.0,28.8,29.68,ENE,61,12.7,12.7,88,0.01,OVC,SCT,0.05,WeatherDisplay:10.37,2013-03-06 14:46:00,
2013-03-06 09:51:00,32.3,29.1,29.68,NNW,328,11.5,11.5,88,0.01,OVC,SCT,0.05,WeatherDisplay:10.37,2013-03-06 14:51:00,
2013-03-06 09:56:00,32.8,29.4,29.68,WNW,282,6.9,6.9,87,0.01,OVC,SCT,0.06,WeatherDisplay:10.37,2013-03-06 14:56:00,
2013-03-06 10:01:00,33.6,30.1,29.68,WNW,301,10.4,10.4,87,0.02,RA,SCT,0.06,WeatherDisplay:10.37,2013-03-06 15:01:00,
2013-03-06 10:06:00,34.1,30.4,29.68,NW,320,10.4,10.4,86,0.02,RA,SCT,0.06,WeatherDisplay:10.37,2013-03-06 15:06:00,
2013-03-06 10:11:00,34.4,30.6,29.69,ENE,66,8.1,8.1,86,0.02,OVC,SCT,0.06,WeatherDisplay:10.37,2013-03-06 15:11:00,
2013-03-06 10:16:00,34.5,30.5,29.69,WSW,248,9.2,9.2,85,0.02,OVC,SCT,0.06,WeatherDisplay:10.37,2013-03-06 15:16:00,
2013-03-06 10:21:00,34.9,30.6,29.69,NNW,333,10.4,10.4,84,0.02,RA,SCT,0.07,WeatherDisplay:10.37,2013-03-06 15:21:00,
2013-03-06 10:26:00,35.1,30.5,29.69,SE,124,9.2,9.2,83,0.02,RA,SCT,0.07,WeatherDisplay:10.37,2013-03-06 15:26:00,
2013-03-06 10:31:00,35.4,30.8,29.69,NW,315,9.2,9.2,83,0.02,OVC,SCT,0.07,WeatherDisplay:10.37,2013-03-06 15:31:00,
2013-03-06 10:36:00,35.6,30.9,29.69,ENE,73,15.0,15.0,83,0.03,RA,SCT,0.08,WeatherDisplay:10.37,2013-03-06 15:36:00,
2013-03-06 10:41:00,35.4,30.8,29.69,ENE,64,6.9,6.9,83,0.03,RA,SCT,0.08,WeatherDisplay:10.37,2013-03-06 15:41:00,
2013-03-06 10:46:00,35.5,30.8,29.69,WNW,299,6.9,6.9,83,0.03,OVC,SCT,0.08,WeatherDisplay:10.37,2013-03-06 15:46:00,
2013-03-06 10:51:00,35.4,30.8,29.70,ENE,68,12.7,12.7,83,0.04,RA,SCT,0.09,WeatherDisplay:10.37,2013-03-06 15:51:00,
2013-03-06 10:56:00,35.3,30.4,29.70,ENE,68,11.5,11.5,82,0.04,RA,SCT,0.09,WeatherDisplay:10.37,2013-03-06 15:56:00,
2013-03-06 11:01:00,35.8,30.8,29.70,NNW,328,10.4,10.4,82,0.03,BKN,SCT,0.09,WeatherDisplay:10.37,2013-03-06 16:01:00,
2013-03-06 11:06:00,36.2,31.2,29.70,North,0,10.4,10.4,82,0.04,RA,SCT,0.10,WeatherDisplay:10.37,2013-03-06 16:06:00,
2013-03-06 11:11:00,36.6,31.3,29.71,NNE,13,12.7,12.7,81,0.04,RA,SCT,0.10,WeatherDisplay:10.37,2013-03-06 16:11:00,
2013-03-06 11:16:00,37.0,31.7,29.71,NE,40,16.1,16.1,81,0.05,RA,SCT,0.11,WeatherDisplay:10.37,2013-03-06 16:16:00,
2013-03-06 11:21:00,37.0,31.7,29.72,ENE,69,6.9,6.9,81,0.04,RA,SCT,0.11,WeatherDisplay:10.37,2013-03-06 16:21:00,
2013-03-06 11:26:00,37.0,31.7,29.72,NE,42,12.7,12.7,81,0.05,RA,SCT,0.12,WeatherDisplay:10.37,2013-03-06 16:26:00,
2013-03-06 11:31:00,37.4,32.1,29.72,North,350,11.5,11.5,81,0.05,RA,SCT,0.12,WeatherDisplay:10.37,2013-03-06 16:31:00,
2013-03-06 11:36:00,37.7,32.1,29.72,SSE,158,17.3,17.3,80,0.05,RA,SCT,0.13,WeatherDisplay:10.37,2013-03-06 16:36:00,
2013-03-06 11:41:00,37.7,32.1,29.72,East,82,17.3,17.3,80,0.05,RA,SCT,0.13,WeatherDisplay:10.37,2013-03-06 16:41:00,
2013-03-06 11:46:00,38.0,32.1,29.72,West,265,15.0,15.0,79,0.06,RA,SCT,0.14,WeatherDisplay:10.37,2013-03-06 16:46:00,
2013-03-06 11:51:00,38.3,32.4,29.73,North,349,8.1,8.1,79,0.06,RA,SCT,0.15,WeatherDisplay:10.37,2013-03-06 16:51:00,
2013-03-06 11:56:00,38.3,32.0,29.73,NE,42,12.2,12.2,78,0.07,RA,SCT,0.16,WeatherDisplay:10.37,2013-03-06 16:56:00,
2013-03-06 12:01:00,38.6,32.6,29.73,ENE,78,15.0,15.0,79,0.07,RA,SCT,0.16,WeatherDisplay:10.37,2013-03-06 17:01:00,
2013-03-06 12:06:00,39.0,32.7,29.74,NE,47,13.8,13.8,78,0.07,RA,SCT,0.17,WeatherDisplay:10.37,2013-03-06 17:06:00,
2013-03-06 12:11:00,39.4,32.8,29.74,NE,51,11.5,11.5,77,0.08,RA,SCT,0.18,WeatherDisplay:10.37,2013-03-06 17:11:00,
2013-03-06 12:16:00,39.2,32.6,29.74,NW,315,10.4,10.4,77,0.08,RA,SCT,0.19,WeatherDisplay:10.37,2013-03-06 17:16:00,
2013-03-06 12:21:00,38.8,32.2,29.75,WNW,284,18.4,18.4,77,0.09,RA,SCT,0.20,WeatherDisplay:10.37,2013-03-06 17:21:00,
2013-03-06 12:26:00,39.1,32.2,29.75,NE,35,13.8,13.8,76,0.08,RA,SCT,0.21,WeatherDisplay:10.37,2013-03-06 17:26:00,
2013-03-06 12:31:00,39.4,32.5,29.75,NNW,347,10.4,10.4,76,0.09,RA,SCT,0.22,WeatherDisplay:10.37,2013-03-06 17:31:00,
2013-03-06 12:36:00,40.2,33.2,29.75,ENE,71,20.7,20.7,76,0.09,RA,SCT,0.23,WeatherDisplay:10.37,2013-03-06 17:36:00,
2013-03-06 12:41:00,40.4,33.1,29.75,ENE,62,16.1,16.1,75,0.11,RA,SCT,0.24,WeatherDisplay:10.37,2013-03-06 17:41:00,
2013-03-06 12:46:00,41.1,34.1,29.75,ENE,64,6.9,6.9,76,0.11,RA,SCT,0.25,WeatherDisplay:10.37,2013-03-06 17:46:00,
2013-03-06 12:51:00,41.7,34.0,29.76,North,353,11.5,11.5,74,0.12,RA,SCT,0.27,WeatherDisplay:10.37,2013-03-06 17:51:00,
2013-03-06 12:56:00,42.2,34.2,29.76,WNW,301,10.4,10.4,73,0.12,RA,SCT,0.28,WeatherDisplay:10.37,2013-03-06 17:56:00,
2013-03-06 13:01:00,42.2,33.8,29.76,NE,34,9.2,9.2,72,0.14,RA,SCT,0.30,WeatherDisplay:10.37,2013-03-06 18:01:00,
2013-03-06 13:06:00,42.7,34.3,29.76,North,360,10.4,10.4,72,0.15,RA,SCT,0.32,WeatherDisplay:10.37,2013-03-06 18:06:00,
2013-03-06 13:11:00,42.9,34.5,29.76,ENE,61,8.1,8.1,72,0.16,RA,SCT,0.34,WeatherDisplay:10.37,2013-03-06 18:11:00,
2013-03-06 13:16:00,43.4,35.0,29.77,NE,34,9.2,9.2,72,0.16,RA,SCT,0.36,WeatherDisplay:10.37,2013-03-06 18:16:00,
2013-03-06 13:21:00,43.5,34.4,29.77,North,354,10.4,10.4,70,0.17,RA,SCT,0.37,WeatherDisplay:10.37,2013-03-06 18:21:00,
2013-03-06 13:26:00,43.4,34.6,29.77,NNW,339,19.6,19.6,71,0.19,RA,SCT,0.39,WeatherDisplay:10.37,2013-03-06 18:26:00,
2013-03-06 13:31:00,43.3,34.2,29.77,West,281,8.1,8.1,70,0.20,RA,SCT,0.41,WeatherDisplay:10.37,2013-03-06 18:31:00,
2013-03-06 13:36:00,43.0,33.9,29.77,NNE,21,11.5,11.5,70,0.20,RA,SCT,0.42,WeatherDisplay:10.37,2013-03-06 18:36:00,
2013-03-06 13:42:00,42.7,33.6,29.77,NNW,340,8.1,8.1,70,0.20,RA,SCT,0.44,WeatherDisplay:10.37,2013-03-06 18:42:00,
2013-03-06 13:47:00,42.2,33.1,29.77,ENE,61,12.7,12.7,70,0.20,RA,SCT,0.45,WeatherDisplay:10.37,2013-03-06 18:47:00,
2013-03-06 13:51:00,41.8,33.1,29.77,ENE,59,13.8,13.8,71,0.19,RA,SCT,0.46,WeatherDisplay:10.37,2013-03-06 18:51:00,
2013-03-06 13:57:00,41.7,33.0,29.77,NNE,24,11.5,11.5,71,0.19,RA,SCT,0.47,WeatherDisplay:10.37,2013-03-06 18:57:00,
2013-03-06 14:02:00,41.5,32.8,29.76,NNE,28,10.4,10.4,71,0.18,RA,SCT,0.49,WeatherDisplay:10.37,2013-03-06 19:02:00,
2013-03-06 14:07:00,41.5,32.4,29.77,NNW,347,9.2,10.6,70,0.18,RA,SCT,0.50,WeatherDisplay:10.37,2013-03-06 19:07:00,
2013-03-06 14:12:00,41.6,32.9,29.77,ENE,62,13.8,13.8,71,0.16,RA,SCT,0.51,WeatherDisplay:10.37,2013-03-06 19:12:00,
2013-03-06 14:17:00,41.7,32.6,29.78,South,181,11.5,11.5,70,0.17,RA,SCT,0.52,WeatherDisplay:10.37,2013-03-06 19:17:00,
2013-03-06 14:22:00,42.6,33.9,29.79,ENE,59,11.5,11.5,71,0.16,RA,SCT,0.54,WeatherDisplay:10.37,2013-03-06 19:22:00,
2013-03-06 14:27:00,43.5,34.0,29.79,NNW,332,8.1,8.1,69,0.16,RA,SCT,0.55,WeatherDisplay:10.37,2013-03-06 19:27:00,
2013-03-06 14:32:00,43.3,33.8,29.79,NE,56,17.3,17.3,69,0.15,RA,SCT,0.56,WeatherDisplay:10.37,2013-03-06 19:32:00,
2013-03-06 14:37:00,42.9,33.1,29.79,North,3,12.7,12.7,68,0.15,RA,SCT,0.57,WeatherDisplay:10.37,2013-03-06 19:37:00,
2013-03-06 14:42:00,42.2,32.4,29.80,NE,41,8.8,8.8,68,0.14,RA,SCT,0.58,WeatherDisplay:10.37,2013-03-06 19:42:00,
2013-03-06 14:47:00,42.0,32.9,29.80,NE,45,13.8,13.8,70,0.13,RA,SCT,0.58,WeatherDisplay:10.37,2013-03-06 19:47:00,
2013-03-06 14:52:00,42.4,33.3,29.80,NNE,23,10.4,10.4,70,0.13,RA,SCT,0.59,WeatherDisplay:10.37,2013-03-06 19:52:00,
2013-03-06 14:57:00,43.1,34.0,29.81,NNW,343,10.4,10.4,70,0.13,RA,SCT,0.60,WeatherDisplay:10.37,2013-03-06 19:57:00,
2013-03-06 15:02:00,43.6,33.7,29.81,East,82,10.4,10.4,68,0.12,RA,SCT,0.61,WeatherDisplay:10.37,2013-03-06 20:02:00,
2013-03-06 15:07:00,43.1,33.3,29.81,NE,44,10.4,10.4,68,0.11,RA,SCT,0.61,WeatherDisplay:10.37,2013-03-06 20:07:00,
2013-03-06 15:12:00,43.1,33.3,29.82,ENE,66,9.2,9.2,68,0.11,RA,SCT,0.62,WeatherDisplay:10.37,2013-03-06 20:12:00,
2013-03-06 15:17:00,42.8,33.0,29.81,North,352,16.1,16.1,68,0.10,RA,SCT,0.62,WeatherDisplay:10.37,2013-03-06 20:17:00,
2013-03-06 15:22:00,42.9,33.4,29.82,ENE,72,18.4,18.4,69,0.09,RA,SCT,0.63,WeatherDisplay:10.37,2013-03-06 20:22:00,
2013-03-06 15:27:00,43.4,33.5,29.82,NNW,335,15.0,15.0,68,0.08,RA,SCT,0.63,WeatherDisplay:10.37,2013-03-06 20:27:00,
2013-03-06 15:32:00,44.0,34.1,29.83,NE,55,12.7,12.7,68,0.08,RA,SCT,0.64,WeatherDisplay:10.37,2013-03-06 20:32:00,
2013-03-06 15:37:00,44.1,33.8,29.84,NNW,328,10.4,10.4,67,0.07,RA,SCT,0.64,WeatherDisplay:10.37,2013-03-06 20:37:00,
2013-03-06 15:42:00,44.0,33.7,29.84,NNE,20,12.6,12.6,67,0.06,OVC,SCT,0.64,WeatherDisplay:10.37,2013-03-06 20:42:00,
2013-03-06 15:47:00,44.2,33.9,29.85,NNE,31,8.1,8.1,67,0.07,RA,SCT,0.65,WeatherDisplay:10.37,2013-03-06 20:47:00,
2013-03-06 15:52:00,44.0,33.4,29.86,NNE,27,8.1,8.1,66,0.06,RA,SCT,0.65,WeatherDisplay:10.37,2013-03-06 20:52:00,
2013-03-06 15:57:00,43.8,33.2,29.86,North,10,12.7,12.7,66,0.05,OVC,SCT,0.65,WeatherDisplay:10.37,2013-03-06 20:57:00,
2013-03-06 16:02:00,43.6,33.4,29.86,ENE,58,10.4,10.4,67,0.05,RA,SCT,0.66,WeatherDisplay:10.37,2013-03-06 21:02:00,
2013-03-06 16:07:00,43.1,32.5,29.87,North,359,16.1,16.1,66,0.05,RA,SCT,0.66,WeatherDisplay:10.37,2013-03-06 21:07:00,
2013-03-06 16:12:00,42.7,32.9,29.87,North,360,6.9,6.9,68,0.04,OVC,SCT,0.66,WeatherDisplay:10.37,2013-03-06 21:12:00,
2013-03-06 16:17:00,42.4,32.6,29.88,NW,322,5.8,5.8,68,0.04,OVC,SCT,0.66,WeatherDisplay:10.37,2013-03-06 21:17:00,
2013-03-06 16:22:00,41.9,32.1,29.88,NNE,32,5.8,5.8,68,0.03,OVC,SCT,0.66,WeatherDisplay:10.37,2013-03-06 21:22:00,
2013-03-06 16:27:00,41.5,31.7,29.88,NE,56,10.4,10.4,68,0.03,OVC,SCT,0.66,WeatherDisplay:10.37,2013-03-06 21:27:00,
2013-03-06 16:32:00,40.9,31.5,29.89,East,97,10.4,10.4,69,0.02,OVC,SCT,0.66,WeatherDisplay:10.37,2013-03-06 21:32:00,
2013-03-06 16:37:00,40.5,31.1,29.90,ENE,73,8.1,8.1,69,0.02,OVC,SCT,0.66,WeatherDisplay:10.37,2013-03-06 21:37:00,
2013-03-06 16:42:00,40.0,31.0,29.90,NE,42,8.1,8.1,70,0.02,OVC,SCT,0.66,WeatherDisplay:10.37,2013-03-06 21:42:00,
2013-03-06 16:47:00,39.6,30.6,29.91,NE,51,8.1,8.1,70,0.02,RA,SCT,0.67,WeatherDisplay:10.37,2013-03-06 21:47:00,
2013-03-06 16:52:00,39.5,30.9,29.91,North,4,6.9,6.9,71,0.02,RA,SCT,0.67,WeatherDisplay:10.37,2013-03-06 21:52:00,
2013-03-06 16:57:00,39.5,30.9,29.91,North,356,8.1,8.1,71,0.02,OVC,SCT,0.67,WeatherDisplay:10.37,2013-03-06 21:57:00,
2013-03-06 17:02:00,39.2,30.6,29.92,NE,40,11.5,11.5,71,0.01,BKN,SCT,0.67,WeatherDisplay:10.37,2013-03-06 22:02:00,
2013-03-06 17:07:00,39.0,30.7,29.92,NNE,20,11.5,11.5,72,0.01,BKN,SCT,0.67,WeatherDisplay:10.37,2013-03-06 22:07:00,
2013-03-06 17:12:00,39.0,30.7,29.92,East,99,9.2,9.2,72,0.01,BKN,SCT,0.67,WeatherDisplay:10.37,2013-03-06 22:12:00,
2013-03-06 17:17:00,38.8,30.5,29.93,NW,320,10.4,10.4,72,0.01,BKN,SCT,0.67,WeatherDisplay:10.37,2013-03-06 22:17:00,
2013-03-06 17:22:00,38.8,30.5,29.93,NW,313,6.9,6.9,72,0.01,BKN,SCT,0.67,WeatherDisplay:10.37,2013-03-06 22:22:00,
2013-03-06 17:27:00,38.8,30.5,29.94,ENE,76,9.2,9.2,72,0.01,BKN,SCT,0.67,WeatherDisplay:10.37,2013-03-06 22:27:00,
2013-03-06 17:32:00,38.7,30.4,29.94,NE,42,8.1,8.1,72,0.01,BKN,SCT,0.67,WeatherDisplay:10.37,2013-03-06 22:32:00,
2013-03-06 17:37:00,38.4,30.2,29.95,North,350,9.2,9.2,72,0.01,BKN,SCT,0.67,WeatherDisplay:10.37,2013-03-06 22:37:00,
2013-03-06 17:42:00,38.2,30.3,29.95,East,83,9.2,9.2,73,0.01,BKN,SCT,0.67,WeatherDisplay:10.37,2013-03-06 22:42:00,
2013-03-06 17:47:00,38.0,30.1,29.95,SE,131,6.9,6.9,73,0.00,BKN,SCT,0.67,WeatherDisplay:10.37,2013-03-06 22:47:00,
2013-03-06 17:52:00,37.8,30.3,29.96,ENE,71,6.9,6.9,74,0.00,BKN,SCT,0.67,WeatherDisplay:10.37,2013-03-06 22:52:00,
2013-03-06 17:57:00,37.7,30.2,29.96,ENE,58,10.4,10.4,74,0.00,BKN,SCT,0.67,WeatherDisplay:10.37,2013-03-06 22:57:00,
2013-03-06 18:02:00,37.5,30.3,29.97,NE,34,5.1,5.1,75,0.00,BKN,SCT,0.67,WeatherDisplay:10.37,2013-03-06 23:02:00,
2013-03-06 18:07:00,37.4,29.9,29.97,North,360,5.8,5.8,74,0.00,BKN,SCT,0.67,WeatherDisplay:10.37,2013-03-06 23:07:00,
2013-03-06 18:12:00,37.3,29.8,29.98,South,172,5.8,5.8,74,0.00,BKN,SCT,0.67,WeatherDisplay:10.37,2013-03-06 23:12:00,
2013-03-06 18:17:00,37.2,30.0,29.98,NE,40,9.2,9.2,75,0.00,BKN,SCT,0.67,WeatherDisplay:10.37,2013-03-06 23:17:00,
2013-03-06 18:22:00,37.2,30.0,29.98,West,260,8.1,8.1,75,0.00,BKN,SCT,0.67,WeatherDisplay:10.37,2013-03-06 23:22:00,
2013-03-06 18:27:00,37.1,29.9,29.99,NNW,337,9.2,9.2,75,0.00,BKN,SCT,0.67,WeatherDisplay:10.37,2013-03-06 23:27:00,
2013-03-06 18:32:00,36.8,29.9,29.99,ENE,62,5.8,5.8,76,0.00,BKN,SCT,0.67,WeatherDisplay:10.37,2013-03-06 23:32:00,
2013-03-06 18:37:00,36.8,29.9,29.99,NE,48,6.9,6.9,76,0.00,BKN,SCT,0.67,WeatherDisplay:10.37,2013-03-06 23:37:00,
2013-03-06 18:42:00,36.9,30.0,29.99,NE,55,6.9,6.9,76,0.00,BKN,SCT,0.67,WeatherDisplay:10.37,2013-03-06 23:42:00,
2013-03-06 18:47:00,36.7,29.5,29.99,ENE,66,9.2,9.2,75,0.00,BKN,SCT,0.67,WeatherDisplay:10.37,2013-03-06 23:47:00,
2013-03-06 18:52:00,36.6,29.7,29.99,North,349,8.1,8.1,76,0.00,BKN,SCT,0.67,WeatherDisplay:10.37,2013-03-06 23:52:00,
2013-03-06 18:57:00,36.5,29.7,29.99,WSW,244,5.8,5.8,76,0.00,BKN,SCT,0.67,WeatherDisplay:10.37,2013-03-06 23:57:00,
2013-03-06 19:02:00,36.6,29.7,29.99,ENE,59,3.5,3.5,76,0.00,OVC,SCT,0.67,WeatherDisplay:10.37,2013-03-07 00:02:00,
2013-03-06 19:07:00,36.6,30.1,29.99,NE,47,8.1,8.1,77,0.00,OVC,SCT,0.67,WeatherDisplay:10.37,2013-03-07 00:07:00,
2013-03-06 19:12:00,36.5,30.0,30.00,East,79,3.5,3.5,77,0.00,OVC,SCT,0.67,WeatherDisplay:10.37,2013-03-07 00:12:00,
2013-03-06 19:17:00,36.3,29.8,30.00,NE,54,3.5,0.0,77,0.00,OVC,SCT,0.67,WeatherDisplay:10.37,2013-03-07 00:17:00,
2013-03-06 19:22:00,36.3,29.8,30.00,ENE,62,5.8,5.8,77,0.00,OVC,SCT,0.67,WeatherDisplay:10.37,2013-03-07 00:22:00,
2013-03-06 19:27:00,36.3,29.8,30.00,NE,40,3.5,3.5,77,0.00,OVC,SCT,0.67,WeatherDisplay:10.37,2013-03-07 00:27:00,
2013-03-06 19:32:00,36.5,30.0,30.00,NNW,340,6.9,6.9,77,0.00,OVC,SCT,0.67,WeatherDisplay:10.37,2013-03-07 00:32:00,
2013-03-06 19:37:00,36.3,29.8,30.00,NNW,337,5.8,5.8,77,0.00,OVC,SCT,0.67,WeatherDisplay:10.37,2013-03-07 00:37:00,
2013-03-06 19:42:00,36.2,30.0,30.00,NNE,24,11.4,11.4,78,0.00,OVC,SCT,0.67,WeatherDisplay:10.37,2013-03-07 00:42:00,
2013-03-06 19:47:00,36.2,30.0,30.00,ENE,58,6.9,6.9,78,0.00,OVC,SCT,0.67,WeatherDisplay:10.37,2013-03-07 00:47:00,
2013-03-06 19:52:00,36.3,30.1,29.99,East,88,7.0,7.0,78,0.00,OVC,SCT,0.67,WeatherDisplay:10.37,2013-03-07 00:52:00,
2013-03-06 19:57:00,36.1,29.9,29.99,NNE,25,10.4,10.4,78,0.00,OVC,SCT,0.67,WeatherDisplay:10.37,2013-03-07 00:57:00,
2013-03-06 20:03:00,36.1,29.9,29.99,NW,325,9.2,9.2,78,0.00,OVC,SCT,0.67,WeatherDisplay:10.37,2013-03-07 01:03:00,
2013-03-06 20:08:00,36.0,30.1,29.99,ENE,62,9.2,9.2,79,0.00,OVC,SCT,0.67,WeatherDisplay:10.37,2013-03-07 01:08:00,
2013-03-06 20:13:00,35.9,30.0,30.00,NNE,16,5.8,5.8,79,0.00,OVC,SCT,0.67,WeatherDisplay:10.37,2013-03-07 01:13:00,
2013-03-06 20:18:00,35.8,29.9,30.00,North,11,8.1,8.1,79,0.00,OVC,SCT,0.67,WeatherDisplay:10.37,2013-03-07 01:18:00,
2013-03-06 20:23:00,35.9,29.7,30.00,ENE,69,6.7,6.7,78,0.00,OVC,SCT,0.67,WeatherDisplay:10.37,2013-03-07 01:23:00,
2013-03-06 20:28:00,35.8,29.9,30.00,NW,305,9.2,9.2,79,0.00,OVC,SCT,0.67,WeatherDisplay:10.37,2013-03-07 01:28:00,
2013-03-06 20:33:00,35.7,29.8,30.00,NE,45,8.1,8.1,79,0.00,OVC,SCT,0.67,WeatherDisplay:10.37,2013-03-07 01:33:00,
2013-03-06 20:38:00,35.7,29.8,30.00,ENE,62,10.4,10.4,79,0.00,OVC,SCT,0.67,WeatherDisplay:10.37,2013-03-07 01:38:00,
2013-03-06 20:43:00,35.6,29.7,30.00,ENE,78,8.1,8.1,79,0.00,OVC,SCT,0.67,WeatherDisplay:10.37,2013-03-07 01:43:00,
2013-03-06 20:48:00,35.5,29.6,30.01,NW,322,8.1,8.1,79,0.00,OVC,SCT,0.67,WeatherDisplay:10.37,2013-03-07 01:48:00,
2013-03-06 20:53:00,35.5,29.6,30.01,North,0,6.9,6.9,79,0.00,OVC,SCT,0.67,WeatherDisplay:10.37,2013-03-07 01:53:00,
2013-03-06 20:58:00,35.5,29.6,30.01,East,95,5.8,5.8,79,0.00,OVC,SCT,0.67,WeatherDisplay:10.37,2013-03-07 01:58:00,
2013-03-06 21:03:00,35.6,29.7,30.01,ESE,103,8.1,8.1,79,0.00,BKN,SCT,0.67,WeatherDisplay:10.37,2013-03-07 02:03:00,
2013-03-06 21:08:00,35.6,29.7,30.01,East,86,8.1,8.1,79,0.00,BKN,SCT,0.67,WeatherDisplay:10.37,2013-03-07 02:08:00,
2013-03-06 21:13:00,35.5,29.6,30.01,NE,40,2.3,2.3,79,0.00,BKN,SCT,0.67,WeatherDisplay:10.37,2013-03-07 02:13:00,
2013-03-06 21:18:00,35.5,29.6,30.01,ENE,62,4.6,4.6,79,0.00,BKN,SCT,0.67,WeatherDisplay:10.37,2013-03-07 02:18:00,
2013-03-06 21:23:00,35.4,29.5,30.01,SE,130,1.1,1.1,79,0.00,BKN,SCT,0.67,WeatherDisplay:10.37,2013-03-07 02:23:00,
2013-03-06 21:28:00,35.4,29.5,30.01,East,93,6.1,6.1,79,0.00,BKN,SCT,0.67,WeatherDisplay:10.37,2013-03-07 02:28:00,
2013-03-06 21:33:00,35.6,29.7,30.02,NE,48,9.2,9.2,79,0.00,BKN,SCT,0.67,WeatherDisplay:10.37,2013-03-07 02:33:00,
2013-03-06 21:38:00,35.5,29.9,30.02,NE,48,6.7,6.7,80,0.00,BKN,SCT,0.67,WeatherDisplay:10.37,2013-03-07 02:38:00,
2013-03-06 21:43:00,35.4,29.8,30.02,SE,136,8.1,8.1,80,0.00,BKN,SCT,0.67,WeatherDisplay:10.37,2013-03-07 02:43:00,
2013-03-06 21:48:00,35.4,29.8,30.03,ENE,68,10.4,10.4,80,0.00,BKN,SCT,0.67,WeatherDisplay:10.37,2013-03-07 02:48:00,
2013-03-06 21:53:00,35.3,29.7,30.03,NNE,13,8.1,8.1,80,0.00,BKN,SCT,0.67,WeatherDisplay:10.37,2013-03-07 02:53:00,
2013-03-06 21:58:00,35.2,29.6,30.03,ENE,75,6.9,6.9,80,0.00,BKN,SCT,0.67,WeatherDisplay:10.37,2013-03-07 02:58:00,
2013-03-06 22:03:00,35.1,29.6,30.03,NNE,24,5.8,5.8,80,0.00,OVC,SCT,0.67,WeatherDisplay:10.37,2013-03-07 03:03:00,
2013-03-06 22:08:00,35.2,29.6,30.03,SW,230,8.1,8.1,80,0.00,OVC,SCT,0.67,WeatherDisplay:10.37,2013-03-07 03:08:00,
2013-03-06 22:13:00,35.2,29.6,30.03,East,88,8.1,8.1,80,0.00,OVC,SCT,0.67,WeatherDisplay:10.37,2013-03-07 03:13:00,
2013-03-06 22:18:00,35.3,29.7,30.03,NE,51,8.1,8.1,80,0.00,OVC,SCT,0.67,WeatherDisplay:10.37,2013-03-07 03:18:00,
2013-03-06 22:23:00,35.3,30.1,30.03,NNW,347,5.8,5.8,81,0.00,OVC,SCT,0.67,WeatherDisplay:10.37,2013-03-07 03:23:00,
2013-03-06 22:28:00,35.2,30.0,30.03,WSW,251,12.7,12.7,81,0.00,OVC,SCT,0.67,WeatherDisplay:10.37,2013-03-07 03:28:00,
2013-03-06 22:33:00,35.2,30.0,30.04,ESE,102,6.9,6.9,81,0.00,OVC,SCT,0.67,WeatherDisplay:10.37,2013-03-07 03:33:00,
2013-03-06 22:38:00,35.0,29.5,30.04,North,10,9.2,9.2,80,0.00,OVC,SCT,0.67,WeatherDisplay:10.37,2013-03-07 03:38:00,
2013-03-06 22:43:00,35.3,29.7,30.04,ENE,68,3.8,3.8,80,0.00,OVC,SCT,0.67,WeatherDisplay:10.37,2013-03-07 03:43:00,
2013-03-06 22:48:00,35.3,30.1,30.04,SE,141,3.5,3.5,81,0.00,OVC,SCT,0.67,WeatherDisplay:10.37,2013-03-07 03:48:00,
2013-03-06 22:53:00,35.2,29.6,30.04,ESE,104,3.5,3.5,80,0.00,OVC,SCT,0.67,WeatherDisplay:10.37,2013-03-07 03:53:00,
2013-03-06 22:58:00,35.2,29.6,30.04,ENE,73,5.8,5.8,80,0.00,OVC,SCT,0.67,WeatherDisplay:10.37,2013-03-07 03:58:00,
2013-03-06 23:03:00,35.1,29.9,30.04,NE,55,6.9,6.9,81,0.00,OVC,SCT,0.67,WeatherDisplay:10.37,2013-03-07 04:03:00,
2013-03-06 23:08:00,35.1,29.9,30.03,NE,41,6.9,6.9,81,0.00,OVC,SCT,0.67,WeatherDisplay:10.37,2013-03-07 04:08:00,
2013-03-06 23:13:00,35.2,29.6,30.03,SW,219,5.8,5.8,80,0.00,OVC,SCT,0.67,WeatherDisplay:10.37,2013-03-07 04:13:00,
2013-03-06 23:18:00,35.2,29.6,30.03,NNE,28,8.1,8.1,80,0.00,OVC,SCT,0.67,WeatherDisplay:10.37,2013-03-07 04:18:00,
2013-03-06 23:23:00,35.1,29.6,30.04,East,95,5.8,5.8,80,0.00,OVC,SCT,0.67,WeatherDisplay:10.37,2013-03-07 04:23:00,
2013-03-06 23:28:00,35.1,29.9,30.04,East,99,6.9,6.9,81,0.00,OVC,SCT,0.67,WeatherDisplay:10.37,2013-03-07 04:28:00,
2013-03-06 23:33:00,35.1,29.6,30.04,WNW,296,5.8,5.8,80,0.00,OVC,SCT,0.67,WeatherDisplay:10.37,2013-03-07 04:33:00,
2013-03-06 23:38:00,35.2,29.6,30.04,NNE,23,0.0,0.0,80,0.00,OVC,SCT,0.67,WeatherDisplay:10.37,2013-03-07 04:38:00,
2013-03-06 23:43:00,35.0,29.5,30.04,WNW,301,11.5,11.5,80,0.00,OVC,SCT,0.67,WeatherDisplay:10.37,2013-03-07 04:43:00,
2013-03-06 23:48:00,35.2,29.6,30.04,NE,47,5.8,5.8,80,0.00,OVC,SCT,0.67,WeatherDisplay:10.37,2013-03-07 04:48:00,
2013-03-06 23:53:00,35.0,29.5,30.03,NNW,333,9.2,9.2,80,0.00,OVC,SCT,0.67,WeatherDisplay:10.37,2013-03-07 04:53:00,
2013-03-06 23:58:00,35.1,29.6,30.03,NE,48,8.1,8.1,80,0.00,OVC,SCT,0.67,WeatherDisplay:10.37,2013-03-07 04:58:00,